createdAt,value
2023-01-11T00:01:53.807Z,98356.31
2023-01-11T00:04:20.483Z,98358.75
2023-01-11T00:06:47.080Z,98351.16
2023-01-11T00:09:13.533Z,98366.06
2023-01-11T00:11:40.080Z,98351.66
2023-01-11T00:14:06.518Z,98345.16
2023-01-11T00:16:32.981Z,98359.09
2023-01-11T00:18:59.368Z,98364.16
2023-01-11T00:21:26.756Z,98358.97
2023-01-11T00:23:53.278Z,98349.16
2023-01-11T00:26:19.961Z,98353.81
2023-01-11T00:28:49.348Z,98367.59
2023-01-11T00:31:17.058Z,98347.34
2023-01-11T00:33:43.560Z,98352.13
2023-01-11T00:36:13.656Z,98355.16
2023-01-11T00:38:57.795Z,98339.28
2023-01-11T00:41:42.947Z,98334.13
2023-01-11T00:44:29.183Z,98327.41
2023-01-11T00:47:15.106Z,98322.94
2023-01-11T00:49:42.142Z,98318.28
2023-01-11T00:52:09.709Z,98319.59
2023-01-11T00:54:37.207Z,98313.47
2023-01-11T00:57:04.363Z,98326.94
2023-01-11T00:59:30.849Z,98329.09
2023-01-11T01:01:57.321Z,98316.38
2023-01-11T01:04:23.821Z,98317.19
2023-01-11T01:06:50.347Z,98319.47
2023-01-11T01:09:17.048Z,98318.88
2023-01-11T01:11:43.549Z,98321.66
2023-01-11T01:14:26.501Z,98309.63
2023-01-11T01:16:54.518Z,98312.28
2023-01-11T01:19:22.312Z,98311.16
2023-01-11T01:21:50.377Z,98298.78
2023-01-11T01:24:17.113Z,98310.72
2023-01-11T01:26:43.653Z,98313.38
2023-01-11T01:29:10.242Z,98311.22
2023-01-11T01:31:36.649Z,98321.16
2023-01-11T01:34:03.157Z,98314.69
2023-01-11T01:36:29.526Z,98323.53
2023-01-11T01:38:55.912Z,98319.56
2023-01-11T01:41:22.381Z,98314.56
2023-01-11T01:43:52.072Z,98321.84
2023-01-11T01:46:20.301Z,98303.56
2023-01-11T01:48:51.615Z,98302.75
2023-01-11T01:51:38.419Z,98316.34
2023-01-11T01:54:09.251Z,98314.22
2023-01-11T01:56:42.714Z,98305.66
2023-01-11T01:59:12.994Z,98298.09
2023-01-11T02:01:49.717Z,98287.66
2023-01-11T02:04:26.847Z,98297.72
2023-01-11T02:06:59.095Z,98299.31
2023-01-11T02:09:31.323Z,98297.38
2023-01-11T02:11:58.969Z,98292.06
2023-01-11T02:14:27.650Z,98296.97
2023-01-11T02:16:54.039Z,98287.72
2023-01-11T02:19:39.271Z,98280.88
2023-01-11T02:22:25.115Z,98272.59
2023-01-11T02:25:00.486Z,98263.84
2023-01-11T02:27:45.457Z,98258.47
2023-01-11T02:30:39.236Z,98243.28
2023-01-11T02:33:22.951Z,98250.63
2023-01-11T02:36:19.666Z,98249.06
2023-01-11T02:38:50.012Z,98244.72
2023-01-11T02:41:28.447Z,98235.97
2023-01-11T02:44:29.037Z,98235.09
2023-01-11T02:47:00.950Z,98238.00
2023-01-11T02:49:38.266Z,98246.66
2023-01-11T02:52:46.859Z,98239.81
2023-01-11T02:55:15.744Z,98238.22
2023-01-11T02:57:44.885Z,98232.75
2023-01-11T03:00:13.058Z,98221.31
2023-01-11T03:02:39.549Z,98222.75
2023-01-11T03:05:12.625Z,98206.44
2023-01-11T03:08:00.535Z,98196.50
2023-01-11T03:10:56.754Z,98198.69
2023-01-11T03:13:41.137Z,98204.69
2023-01-11T03:16:29.936Z,98207.00
2023-01-11T03:19:19.504Z,98211.50
2023-01-11T03:22:07.721Z,98199.84
2023-01-11T03:24:44.135Z,98189.94
2023-01-11T03:27:16.528Z,98194.81
2023-01-11T03:29:50.856Z,98181.34
2023-01-11T03:32:23.863Z,98180.97
2023-01-11T03:35:09.117Z,98176.63
2023-01-11T03:37:37.876Z,98176.69
2023-01-11T03:40:23.711Z,98179.28
2023-01-11T03:43:12.050Z,98167.41
2023-01-11T03:45:41.380Z,98179.59
2023-01-11T03:48:13.631Z,98173.19
2023-01-11T03:50:41.841Z,98166.16
2023-01-11T03:53:10.381Z,98175.13
2023-01-11T03:55:43.136Z,98170.84
2023-01-11T03:58:09.742Z,98163.06
2023-01-11T04:00:37.378Z,98158.13
2023-01-11T04:03:03.887Z,98153.13
2023-01-11T04:05:30.360Z,98163.72
2023-01-11T04:07:56.828Z,98157.19
2023-01-11T04:10:23.296Z,98158.03
2023-01-11T04:12:49.803Z,98152.88
2023-01-11T04:15:17.073Z,98141.44
2023-01-11T04:17:43.861Z,98147.13
2023-01-11T04:20:12.092Z,98130.16
2023-01-11T04:22:38.739Z,98132.63
2023-01-11T04:25:05.765Z,98123.66
2023-01-11T04:27:32.293Z,98124.59
2023-01-11T04:29:58.930Z,98128.66
2023-01-11T04:32:25.358Z,98122.56
2023-01-11T04:34:51.790Z,98125.22
2023-01-11T04:37:18.266Z,98114.94
2023-01-11T04:39:44.742Z,98112.06
2023-01-11T04:42:21.174Z,98112.31
2023-01-11T04:44:49.691Z,98120.97
2023-01-11T04:47:17.872Z,98106.03
2023-01-11T04:49:44.545Z,98113.03
2023-01-11T04:52:12.470Z,98103.78
2023-01-11T04:54:39.170Z,98107.13
2023-01-11T04:57:06.564Z,98087.41
2023-01-11T04:59:33.085Z,98077.28
2023-01-11T05:01:59.511Z,98077.81
2023-01-11T05:04:25.978Z,98075.56
2023-01-11T05:06:52.562Z,98076.25
2023-01-11T05:09:19.422Z,98081.78
2023-01-11T05:11:46.364Z,98072.72
2023-01-11T05:14:13.500Z,98072.66
2023-01-11T05:16:39.915Z,98063.03
2023-01-11T05:19:06.862Z,98074.91
2023-01-11T05:21:35.883Z,98071.53
2023-01-11T05:24:04.799Z,98068.56
2023-01-11T05:26:34.912Z,98065.31
2023-01-11T05:29:04.912Z,98060.97
2023-01-11T05:31:32.580Z,98067.81
2023-01-11T05:33:59.395Z,98056.59
2023-01-11T05:36:28.743Z,98059.25
2023-01-11T05:38:58.659Z,98053.94
2023-01-11T05:41:27.240Z,98055.94
2023-01-11T05:44:13.164Z,98069.81
2023-01-11T05:46:41.385Z,98070.84
2023-01-11T05:49:09.237Z,98061.50
2023-01-11T05:51:37.956Z,98057.31
2023-01-11T05:54:06.704Z,98055.66
2023-01-11T05:56:33.717Z,98061.44
2023-01-11T05:59:00.198Z,98036.34
2023-01-11T06:01:27.172Z,98041.63
2023-01-11T06:03:53.670Z,98038.63
2023-01-11T06:06:21.462Z,98043.16
2023-01-11T06:08:48.233Z,98040.16
2023-01-11T06:11:15.140Z,98028.94
2023-01-11T06:13:41.968Z,98022.41
2023-01-11T06:16:11.932Z,98033.19
2023-01-11T06:18:41.045Z,98036.94
2023-01-11T06:21:08.289Z,98045.31
2023-01-11T06:23:38.002Z,98030.03
2023-01-11T06:26:11.256Z,98034.13
2023-01-11T06:28:38.048Z,98035.25
2023-01-11T06:31:06.248Z,98027.88
2023-01-11T06:33:33.323Z,98027.34
2023-01-11T06:36:04.110Z,98019.81
2023-01-11T06:38:30.718Z,98018.69
2023-01-11T06:41:00.359Z,98033.06
2023-01-11T06:43:28.400Z,98030.13
2023-01-11T06:45:55.305Z,98029.84
2023-01-11T06:48:23.548Z,98026.06
2023-01-11T06:50:51.771Z,98033.34
2023-01-11T06:53:18.554Z,98031.38
2023-01-11T06:55:45.383Z,98028.72
2023-01-11T06:58:12.017Z,98025.75
2023-01-11T07:00:38.589Z,98033.19
2023-01-11T07:03:06.788Z,98028.16
2023-01-11T07:05:34.715Z,98034.69
2023-01-11T07:08:01.868Z,98041.75
2023-01-11T07:10:28.730Z,98035.88
2023-01-11T07:12:55.306Z,98049.84
2023-01-11T07:15:21.972Z,98036.00
2023-01-11T07:17:54.340Z,98042.50
2023-01-11T07:20:21.232Z,98045.63
2023-01-11T07:22:47.712Z,98046.16
2023-01-11T07:25:14.144Z,98045.16
2023-01-11T07:27:40.579Z,98041.00
2023-01-11T07:30:09.803Z,98042.97
2023-01-11T07:32:36.424Z,98053.44
2023-01-11T07:35:02.915Z,98064.94
2023-01-11T07:37:32.518Z,98056.41
2023-01-11T07:39:59.041Z,98063.31
2023-01-11T07:42:44.312Z,98057.97
2023-01-11T07:45:11.103Z,98060.31
2023-01-11T07:47:37.558Z,98054.16
2023-01-11T07:50:04.352Z,98050.69
2023-01-11T07:52:30.815Z,98049.53
2023-01-11T07:55:02.438Z,98050.13
2023-01-11T07:57:30.428Z,98041.16
2023-01-11T07:59:57.105Z,98043.97
2023-01-11T08:02:23.647Z,98043.66
2023-01-11T08:04:50.513Z,98038.91
2023-01-11T08:07:17.090Z,98039.63
2023-01-11T08:09:43.601Z,98047.59
2023-01-11T08:12:28.427Z,98046.94
2023-01-11T08:14:54.903Z,98046.44
2023-01-11T08:17:21.337Z,98044.94
2023-01-11T08:19:47.739Z,98033.56
2023-01-11T08:22:14.234Z,98039.31
2023-01-11T08:24:40.798Z,98046.84
2023-01-11T08:27:07.354Z,98032.63
2023-01-11T08:29:33.820Z,98037.53
2023-01-11T08:32:00.642Z,98051.28
2023-01-11T08:34:29.014Z,98037.94
2023-01-11T08:36:57.479Z,98039.53
2023-01-11T08:39:24.802Z,98025.81
2023-01-11T08:41:51.440Z,98034.75
2023-01-11T08:44:25.493Z,98040.00
2023-01-11T08:46:59.526Z,98040.38
2023-01-11T08:49:25.930Z,98035.69
2023-01-11T08:51:52.403Z,98041.69
2023-01-11T08:54:18.923Z,98036.97
2023-01-11T08:56:45.343Z,98036.22
2023-01-11T08:59:12.087Z,98031.22
2023-01-11T09:01:38.708Z,98031.19
2023-01-11T09:04:19.199Z,98031.31
2023-01-11T09:06:50.147Z,98041.13
2023-01-11T09:09:17.044Z,98039.44
2023-01-11T09:11:56.468Z,98036.34
2023-01-11T09:14:25.302Z,98035.63
2023-01-11T09:16:52.980Z,98033.38
2023-01-11T09:19:20.145Z,98031.94
2023-01-11T09:21:46.931Z,98042.50
2023-01-11T09:24:14.106Z,98033.56
2023-01-11T09:26:43.210Z,98053.91
2023-01-11T09:29:10.532Z,98036.72
2023-01-11T09:31:37.313Z,98048.25
2023-01-11T09:34:04.868Z,98046.75
2023-01-11T09:36:32.981Z,98044.91
2023-01-11T09:39:01.691Z,98043.47
2023-01-11T09:42:00.221Z,98049.63
2023-01-11T09:44:29.724Z,98052.56
2023-01-11T09:47:12.504Z,98052.91
2023-01-11T09:49:43.241Z,98055.13
2023-01-11T09:52:38.246Z,98061.13
2023-01-11T09:55:06.131Z,98058.88
2023-01-11T09:57:32.558Z,98056.91
2023-01-11T10:00:26.406Z,98051.63
2023-01-11T10:03:42.545Z,98049.50
2023-01-11T10:06:28.804Z,98063.50
2023-01-11T10:18:42.660Z,98065.25
2023-01-11T10:21:37.424Z,98061.31
2023-01-11T10:24:14.660Z,98064.03
2023-01-11T10:26:41.997Z,98063.81
2023-01-11T10:29:58.763Z,98077.03
2023-01-11T10:32:53.089Z,98081.06
2023-01-11T10:35:52.184Z,98078.69
2023-01-11T10:38:47.254Z,98080.22
2023-01-11T10:41:26.015Z,98088.88
2023-01-11T10:44:32.828Z,98084.63
2023-01-11T10:47:02.005Z,98106.19
2023-01-11T10:49:36.579Z,98105.72
2023-01-11T10:52:33.393Z,98104.25
2023-01-11T10:55:02.835Z,98107.63
2023-01-11T10:57:59.477Z,98106.69
2023-01-11T11:00:43.540Z,98110.22
2023-01-11T11:03:28.231Z,98105.47
2023-01-11T11:06:18.141Z,98106.75
2023-01-11T11:08:56.120Z,98100.75
2023-01-11T11:11:40.847Z,98094.13
2023-01-11T11:14:30.142Z,98084.78
2023-01-11T11:17:19.399Z,98084.25
2023-01-11T11:19:46.145Z,98082.69
2023-01-11T11:22:13.088Z,98086.06
2023-01-11T11:24:46.544Z,98081.78
2023-01-11T11:27:34.715Z,98070.66
2023-01-11T11:30:01.247Z,98066.84
2023-01-11T11:32:32.005Z,98067.66
2023-01-11T11:34:58.572Z,98072.00
2023-01-11T11:37:33.465Z,98068.72
2023-01-11T11:40:00.222Z,98049.72
2023-01-11T11:42:27.056Z,98056.13
2023-01-11T11:45:08.850Z,98058.41
2023-01-11T11:47:36.379Z,98058.28
2023-01-11T11:50:43.089Z,98055.53
2023-01-11T11:53:48.119Z,98056.00
2023-01-11T11:56:26.966Z,98061.16
2023-01-11T11:58:54.812Z,98062.84
2023-01-11T12:01:33.526Z,98061.50
2023-01-11T12:04:04.419Z,98074.97
2023-01-11T12:06:31.136Z,98079.97
2023-01-11T12:09:01.158Z,98080.53
2023-01-11T12:11:35.066Z,98094.16
2023-01-11T12:14:10.351Z,98094.44
2023-01-11T12:16:41.747Z,98097.88
2023-01-11T12:19:28.710Z,98090.00
2023-01-11T12:22:19.278Z,98099.31
2023-01-11T12:25:05.215Z,98095.44
2023-01-11T12:27:46.146Z,98087.16
2023-01-11T12:30:25.440Z,98071.19
2023-01-11T12:33:32.482Z,98090.91
2023-01-11T12:36:11.175Z,98094.16
2023-01-11T12:38:48.639Z,98096.00
2023-01-11T12:41:21.029Z,98097.34
2023-01-11T12:44:07.415Z,98104.44
2023-01-11T12:47:00.917Z,98106.03
2023-01-11T12:49:33.395Z,98101.69
2023-01-11T12:52:18.612Z,98088.25
2023-01-11T12:55:03.353Z,98103.03
2023-01-11T12:57:59.956Z,98107.88
2023-01-11T13:00:49.419Z,98120.22
2023-01-11T13:03:34.794Z,98123.69
2023-01-11T13:06:16.253Z,98150.09
2023-01-11T13:08:59.764Z,98152.44
2023-01-11T13:12:16.949Z,98164.63
2023-01-11T13:14:49.607Z,98163.22
2023-01-11T13:17:37.099Z,98149.28
2023-01-11T13:20:58.887Z,98148.06
2023-01-11T13:23:53.271Z,98154.44
2023-01-11T13:26:27.942Z,98159.47
2023-01-11T13:29:08.560Z,98156.44
2023-01-11T13:31:36.289Z,98148.84
2023-01-11T13:34:17.509Z,98155.34
2023-01-11T13:36:49.049Z,98158.13
2023-01-11T13:39:45.680Z,98152.25
2023-01-11T13:42:25.193Z,98159.09
2023-01-11T13:44:58.329Z,98158.66
2023-01-11T13:47:42.109Z,98148.81
2023-01-11T13:50:21.319Z,98155.97
2023-01-11T13:53:15.680Z,98160.53
2023-01-11T13:55:58.818Z,98164.44
2023-01-11T13:58:30.229Z,98184.88
2023-01-11T14:01:15.054Z,98180.25
2023-01-11T14:03:47.187Z,98189.72
2023-01-11T14:06:29.228Z,98194.72
2023-01-11T14:09:53.444Z,98193.19
2023-01-11T14:12:34.878Z,98207.50
2023-01-11T14:15:38.482Z,98195.59
2023-01-11T14:18:08.929Z,98192.25
2023-01-11T14:21:17.489Z,98196.72
2023-01-11T14:23:51.381Z,98205.66
2023-01-11T14:26:45.165Z,98213.63
2023-01-11T14:29:40.476Z,98228.31
2023-01-11T14:32:24.105Z,98226.94
2023-01-11T14:35:03.893Z,98238.41
2023-01-11T14:37:30.311Z,98241.53
2023-01-11T14:40:17.070Z,98244.94
2023-01-11T14:43:05.073Z,98252.78
2023-01-11T14:46:13.539Z,98264.13
2023-01-11T14:49:02.865Z,98265.94
2023-01-11T14:51:44.709Z,98276.88
2023-01-11T14:54:16.685Z,98275.50
2023-01-11T14:56:43.091Z,98282.66
2023-01-11T14:59:31.455Z,98273.78
2023-01-11T15:02:04.128Z,98281.13
2023-01-11T15:04:33.158Z,98282.56
2023-01-11T15:07:00.877Z,98279.44
2023-01-11T15:09:50.484Z,98291.81
2023-01-11T15:12:19.812Z,98292.16
2023-01-11T15:14:49.774Z,98297.47
2023-01-11T15:17:38.319Z,98310.63
2023-01-11T15:20:14.447Z,98305.38
2023-01-11T15:22:41.222Z,98321.16
2023-01-11T15:25:28.544Z,98318.91
2023-01-11T15:27:55.928Z,98323.72
2023-01-11T15:30:28.733Z,98325.78
2023-01-11T15:33:17.079Z,98327.09
2023-01-11T15:35:55.515Z,98339.84
2023-01-11T15:38:43.613Z,98339.13
2023-01-11T15:41:33.871Z,98342.19
2023-01-11T15:44:37.176Z,98339.38
2023-01-11T15:47:21.513Z,98349.31
2023-01-11T15:50:25.384Z,98344.72
2023-01-11T15:53:14.659Z,98343.75
2023-01-11T15:55:58.418Z,98344.59
2023-01-11T15:58:40.098Z,98354.50
2023-01-11T16:01:28.712Z,98364.00
2023-01-11T16:04:01.300Z,98371.00
2023-01-11T16:06:33.932Z,98367.22
2023-01-11T16:09:23.089Z,98365.00
2023-01-11T16:12:02.736Z,98371.25
2023-01-11T16:14:57.113Z,98370.69
2023-01-11T16:17:24.785Z,98370.13
2023-01-11T16:19:56.478Z,98367.47
2023-01-11T16:22:28.120Z,98369.56
2023-01-11T16:25:01.444Z,98372.16
2023-01-11T16:27:30.795Z,98366.47
2023-01-11T16:29:57.874Z,98374.50
2023-01-11T16:32:32.717Z,98376.72
2023-01-11T16:35:16.215Z,98367.41
2023-01-11T16:37:45.250Z,98369.75
2023-01-11T16:40:32.340Z,98369.22
2023-01-11T16:43:05.599Z,98375.59
2023-01-11T16:45:50.012Z,98382.81
2023-01-11T16:48:22.095Z,98385.97
2023-01-11T16:50:58.001Z,98394.69
2023-01-11T16:53:26.711Z,98398.91
2023-01-11T16:56:14.397Z,98402.47
2023-01-11T16:58:40.961Z,98404.66
2023-01-11T17:01:13.286Z,98410.25
2023-01-11T17:03:53.590Z,98421.41
2023-01-11T17:06:22.423Z,98419.69
2023-01-11T17:08:50.926Z,98418.97
2023-01-11T17:11:35.385Z,98421.41
2023-01-11T17:14:34.212Z,98431.16
2023-01-11T17:17:07.121Z,98427.66
2023-01-11T17:19:37.092Z,98429.69
2023-01-11T17:22:04.123Z,98442.59
2023-01-11T17:24:31.819Z,98440.97
2023-01-11T17:27:02.067Z,98446.00
2023-01-11T17:29:33.621Z,98454.81
2023-01-11T17:32:03.043Z,98455.06
2023-01-11T17:34:36.083Z,98466.94
2023-01-11T17:37:10.343Z,98465.66
2023-01-11T17:39:43.015Z,98476.19
2023-01-11T17:42:31.590Z,98473.88
2023-01-11T17:45:13.551Z,98472.81
2023-01-11T17:47:40.864Z,98471.41
2023-01-11T17:50:28.099Z,98477.63
2023-01-11T17:53:28.257Z,98477.63
2023-01-11T17:55:57.602Z,98480.28
2023-01-11T17:58:29.209Z,98481.75
2023-01-11T18:01:04.933Z,98487.63
2023-01-11T18:03:40.972Z,98491.25
2023-01-11T18:06:34.682Z,98499.56
2023-01-11T18:09:04.756Z,98508.81
2023-01-11T18:11:34.423Z,98514.97
2023-01-11T18:14:04.666Z,98514.97
2023-01-11T18:16:31.858Z,98525.19
2023-01-11T18:18:58.473Z,98521.56
2023-01-11T18:21:40.158Z,98521.72
2023-01-11T18:24:09.896Z,98517.34
2023-01-11T18:26:37.651Z,98516.28
2023-01-11T18:29:05.103Z,98530.34
2023-01-11T18:31:32.432Z,98533.84
2023-01-11T18:33:59.397Z,98538.63
2023-01-11T18:36:27.503Z,98537.94
2023-01-11T18:38:54.058Z,98532.88
2023-01-11T18:41:39.435Z,98535.28
2023-01-11T18:44:05.946Z,98532.13
2023-01-11T18:46:32.502Z,98529.34
2023-01-11T18:48:58.995Z,98535.63
2023-01-11T18:51:31.337Z,98527.22
2023-01-11T18:53:57.775Z,98539.75
2023-01-11T18:56:24.180Z,98533.00
2023-01-11T18:58:50.614Z,98534.53
2023-01-11T19:01:17.692Z,98538.53
2023-01-11T19:03:46.053Z,98529.16
2023-01-11T19:06:13.185Z,98533.13
2023-01-11T19:08:39.681Z,98526.03
2023-01-11T19:11:06.124Z,98538.63
2023-01-11T19:13:32.639Z,98538.91
2023-01-11T19:16:01.442Z,98556.69
2023-01-11T19:18:29.262Z,98563.44
2023-01-11T19:21:01.994Z,98564.25
2023-01-11T19:23:28.964Z,98552.56
2023-01-11T19:25:59.682Z,98566.63
2023-01-11T19:28:27.365Z,98570.47
2023-01-11T19:30:54.231Z,98573.34
2023-01-11T19:33:20.899Z,98571.66
2023-01-11T19:35:49.284Z,98568.19
2023-01-11T19:38:18.325Z,98570.09
2023-01-11T19:40:50.359Z,98564.47
2023-01-11T19:43:17.205Z,98573.09
2023-01-11T19:45:43.587Z,98579.78
2023-01-11T19:48:10.894Z,98574.06
2023-01-11T19:50:37.301Z,98567.03
2023-01-11T19:53:03.749Z,98561.59
2023-01-11T19:55:30.475Z,98562.47
2023-01-11T19:57:57.048Z,98562.25
2023-01-11T20:00:23.637Z,98552.34
2023-01-11T20:02:50.158Z,98549.47
2023-01-11T20:05:16.708Z,98546.00
2023-01-11T20:07:43.123Z,98547.19
2023-01-11T20:10:10.110Z,98539.97
2023-01-11T20:12:36.567Z,98529.03
2023-01-11T20:15:03.467Z,98530.34
2023-01-11T20:17:30.054Z,98529.03
2023-01-11T20:19:56.489Z,98532.28
2023-01-11T20:22:25.881Z,98544.56
2023-01-11T20:24:52.360Z,98540.47
2023-01-11T20:27:18.909Z,98535.66
2023-01-11T20:29:45.734Z,98544.09
2023-01-11T20:32:34.932Z,98553.19
2023-01-11T20:34:58.941Z,98553.19
2023-01-11T20:37:25.439Z,98543.09
2023-01-11T20:39:51.898Z,98539.38
2023-01-11T20:42:18.383Z,98534.09
2023-01-11T20:44:44.960Z,98528.41
2023-01-11T20:47:11.443Z,98529.50
2023-01-11T20:49:37.938Z,98528.19
2023-01-11T20:52:05.182Z,98522.91
2023-01-11T20:54:31.710Z,98524.19
2023-01-11T20:57:02.151Z,98514.59
2023-01-11T20:59:28.589Z,98510.00
2023-01-11T21:01:55.023Z,98500.75
2023-01-11T21:04:21.492Z,98502.34
2023-01-11T21:06:48.383Z,98503.53
2023-01-11T21:09:17.430Z,98498.84
2023-01-11T21:11:44.486Z,98498.25
2023-01-11T21:14:13.832Z,98477.91
2023-01-11T21:16:42.116Z,98495.44
2023-01-11T21:19:11.540Z,98484.25
2023-01-11T21:21:38.234Z,98497.75
2023-01-11T21:24:05.109Z,98485.59
2023-01-11T21:26:32.907Z,98490.88
2023-01-11T21:29:01.863Z,98486.34
2023-01-11T21:31:31.394Z,98488.13
2023-01-11T21:33:59.340Z,98492.81
2023-01-11T21:36:27.805Z,98476.06
2023-01-11T21:38:56.486Z,98483.91
2023-01-11T21:41:43.860Z,98478.38
2023-01-11T21:44:14.694Z,98469.44
2023-01-11T21:46:41.580Z,98473.44
2023-01-11T21:49:08.759Z,98477.13
2023-01-11T21:51:36.122Z,98501.09
2023-01-11T21:54:08.123Z,98470.19
2023-01-11T21:56:34.997Z,98480.91
2023-01-11T21:59:02.024Z,98493.66
2023-01-11T22:01:28.736Z,98495.94
2023-01-11T22:03:55.316Z,98488.72
2023-01-11T22:06:22.008Z,98498.34
2023-01-11T22:08:48.785Z,98491.34
2023-01-11T22:11:17.000Z,98495.59
2023-01-11T22:13:43.923Z,98501.22
2023-01-11T22:16:17.551Z,98490.31
2023-01-11T22:18:45.131Z,98491.16
2023-01-11T22:21:18.067Z,98491.25
2023-01-11T22:23:46.189Z,98478.25
2023-01-11T22:26:17.725Z,98472.72
2023-01-11T22:29:04.782Z,98478.13
2023-01-11T22:31:32.684Z,98487.16
2023-01-11T22:33:59.987Z,98483.91
2023-01-11T22:36:28.171Z,98477.25
2023-01-11T22:38:54.928Z,98473.50
2023-01-11T22:41:21.870Z,98474.59
2023-01-11T22:43:48.378Z,98488.88
2023-01-11T22:46:17.738Z,98476.56
2023-01-11T22:48:44.862Z,98486.19
2023-01-11T22:51:11.729Z,98473.59
2023-01-11T22:53:40.043Z,98480.28
2023-01-11T22:56:07.729Z,98474.13
2023-01-11T22:58:35.874Z,98469.03
2023-01-11T23:01:23.729Z,98470.97
2023-01-11T23:03:51.889Z,98464.19
2023-01-11T23:06:21.530Z,98457.41
2023-01-11T23:08:48.559Z,98461.09
2023-01-11T23:11:42.874Z,98470.31
2023-01-11T23:14:12.037Z,98460.84
2023-01-11T23:16:39.162Z,98449.97
2023-01-11T23:19:07.557Z,98449.06
2023-01-11T23:21:34.714Z,98448.88
2023-01-11T23:24:02.248Z,98444.41
2023-01-11T23:26:29.112Z,98431.56
2023-01-11T23:28:55.559Z,98454.13
2023-01-11T23:31:24.484Z,98445.19
2023-01-11T23:33:56.197Z,98452.56
2023-01-11T23:36:26.325Z,98450.75
2023-01-11T23:38:52.795Z,98447.00
2023-01-11T23:41:39.098Z,98447.84
2023-01-11T23:44:10.373Z,98455.16
2023-01-11T23:46:55.885Z,98450.53
2023-01-11T23:49:24.684Z,98451.00
2023-01-11T23:51:51.397Z,98451.97
2023-01-11T23:54:17.806Z,98447.13
2023-01-11T23:56:44.308Z,98441.38
2023-01-11T23:59:11.085Z,98446.03
